sensor_id;sensor_type;location;lat;lon;timestamp;P1;durP1;ratioP1;P2;durP2;ratioP2
4885;SDS011;2457;51.788;6.136;2024-02-14T00:01:37;4.60;;;1.60;;
4885;SDS011;2457;51.788;6.136;2024-02-14T00:04:05;3.53;;;1.27;;
4885;SDS011;2457;51.788;6.136;2024-02-14T00:06:36;5.80;;;1.50;;
4885;SDS011;2457;51.788;6.136;2024-02-14T00:09:04;3.97;;;1.50;;
4885;SDS011;2457;51.788;6.136;2024-02-14T00:11:32;5.00;;;1.60;;
4885;SDS011;2457;51.788;6.136;2024-02-14T00:14:00;3.47;;;1.40;;
4885;SDS011;2457;51.788;6.136;2024-02-14T00:16:27;3.97;;;1.70;;
4885;SDS011;2457;51.788;6.136;2024-02-14T00:18:56;4.23;;;1.50;;
4885;SDS011;2457;51.788;6.136;2024-02-14T00:21:24;4.47;;;1.70;;
4885;SDS011;2457;51.788;6.136;2024-02-14T00:23:51;5.03;;;1.80;;
4885;SDS011;2457;51.788;6.136;2024-02-14T00:26:18;3.87;;;1.70;;
4885;SDS011;2457;51.788;6.136;2024-02-14T00:28:46;3.43;;;1.33;;
4885;SDS011;2457;51.788;6.136;2024-02-14T00:31:13;3.87;;;1.50;;
4885;SDS011;2457;51.788;6.136;2024-02-14T00:33:41;3.83;;;1.90;;
4885;SDS011;2457;51.788;6.136;2024-02-14T00:36:08;3.70;;;1.40;;
4885;SDS011;2457;51.788;6.136;2024-02-14T00:38:35;3.97;;;1.40;;
4885;SDS011;2457;51.788;6.136;2024-02-14T00:41:03;3.80;;;1.67;;
4885;SDS011;2457;51.788;6.136;2024-02-14T00:43:30;6.20;;;2.00;;
4885;SDS011;2457;51.788;6.136;2024-02-14T00:45:58;3.40;;;1.30;;
4885;SDS011;2457;51.788;6.136;2024-02-14T00:48:25;4.83;;;1.30;;
4885;SDS011;2457;51.788;6.136;2024-02-14T00:50:53;4.50;;;1.40;;
4885;SDS011;2457;51.788;6.136;2024-02-14T00:53:20;4.00;;;1.30;;
4885;SDS011;2457;51.788;6.136;2024-02-14T00:55:48;3.37;;;1.47;;
4885;SDS011;2457;51.788;6.136;2024-02-14T00:58:15;6.47;;;1.77;;
4885;SDS011;2457;51.788;6.136;2024-02-14T01:00:42;4.20;;;1.80;;
4885;SDS011;2457;51.788;6.136;2024-02-14T01:03:10;3.40;;;1.50;;
4885;SDS011;2457;51.788;6.136;2024-02-14T01:05:39;4.73;;;1.30;;
4885;SDS011;2457;51.788;6.136;2024-02-14T01:08:06;3.97;;;1.87;;
4885;SDS011;2457;51.788;6.136;2024-02-14T01:10:34;3.57;;;1.57;;
4885;SDS011;2457;51.788;6.136;2024-02-14T01:13:01;3.70;;;1.50;;
4885;SDS011;2457;51.788;6.136;2024-02-14T01:15:29;3.07;;;1.27;;
4885;SDS011;2457;51.788;6.136;2024-02-14T01:17:56;4.10;;;1.67;;
4885;SDS011;2457;51.788;6.136;2024-02-14T01:20:24;2.90;;;1.20;;
4885;SDS011;2457;51.788;6.136;2024-02-14T01:22:51;3.20;;;1.30;;
4885;SDS011;2457;51.788;6.136;2024-02-14T01:25:19;4.37;;;1.47;;
4885;SDS011;2457;51.788;6.136;2024-02-14T01:27:46;4.97;;;1.73;;
4885;SDS011;2457;51.788;6.136;2024-02-14T01:30:15;4.20;;;1.80;;
4885;SDS011;2457;51.788;6.136;2024-02-14T01:32:43;3.33;;;1.20;;
4885;SDS011;2457;51.788;6.136;2024-02-14T01:35:10;4.87;;;1.67;;
4885;SDS011;2457;51.788;6.136;2024-02-14T01:37:37;3.40;;;1.50;;
4885;SDS011;2457;51.788;6.136;2024-02-14T01:40:05;3.13;;;1.40;;
4885;SDS011;2457;51.788;6.136;2024-02-14T01:42:35;4.40;;;1.70;;
4885;SDS011;2457;51.788;6.136;2024-02-14T01:45:02;3.17;;;1.23;;
4885;SDS011;2457;51.788;6.136;2024-02-14T01:47:30;4.00;;;1.60;;
4885;SDS011;2457;51.788;6.136;2024-02-14T01:49:58;3.73;;;1.60;;
4885;SDS011;2457;51.788;6.136;2024-02-14T01:52:26;5.10;;;1.60;;
4885;SDS011;2457;51.788;6.136;2024-02-14T01:54:53;3.70;;;1.50;;
4885;SDS011;2457;51.788;6.136;2024-02-14T01:57:21;4.60;;;1.80;;
4885;SDS011;2457;51.788;6.136;2024-02-14T01:59:49;3.23;;;1.30;;
4885;SDS011;2457;51.788;6.136;2024-02-14T02:02:16;4.50;;;1.73;;
4885;SDS011;2457;51.788;6.136;2024-02-14T02:04:44;4.53;;;2.10;;
4885;SDS011;2457;51.788;6.136;2024-02-14T02:07:12;5.33;;;1.70;;
4885;SDS011;2457;51.788;6.136;2024-02-14T02:09:40;3.90;;;1.73;;
4885;SDS011;2457;51.788;6.136;2024-02-14T02:12:07;3.70;;;1.80;;
4885;SDS011;2457;51.788;6.136;2024-02-14T02:14:35;6.00;;;2.17;;
4885;SDS011;2457;51.788;6.136;2024-02-14T02:17:02;4.47;;;2.33;;
4885;SDS011;2457;51.788;6.136;2024-02-14T02:19:31;4.80;;;2.00;;
4885;SDS011;2457;51.788;6.136;2024-02-14T02:21:59;4.23;;;1.83;;
4885;SDS011;2457;51.788;6.136;2024-02-14T02:24:26;5.00;;;2.00;;
4885;SDS011;2457;51.788;6.136;2024-02-14T02:26:54;3.70;;;1.70;;
4885;SDS011;2457;51.788;6.136;2024-02-14T02:29:25;4.83;;;1.97;;
4885;SDS011;2457;51.788;6.136;2024-02-14T02:31:53;6.20;;;2.10;;
4885;SDS011;2457;51.788;6.136;2024-02-14T02:34:20;4.20;;;1.90;;
4885;SDS011;2457;51.788;6.136;2024-02-14T02:36:48;4.33;;;1.73;;
4885;SDS011;2457;51.788;6.136;2024-02-14T02:39:17;4.40;;;1.87;;
4885;SDS011;2457;51.788;6.136;2024-02-14T02:41:44;4.83;;;1.83;;
4885;SDS011;2457;51.788;6.136;2024-02-14T02:44:13;5.10;;;1.90;;
4885;SDS011;2457;51.788;6.136;2024-02-14T02:46:41;4.40;;;1.83;;
4885;SDS011;2457;51.788;6.136;2024-02-14T02:49:10;5.20;;;2.00;;
4885;SDS011;2457;51.788;6.136;2024-02-14T02:51:39;4.37;;;1.93;;
4885;SDS011;2457;51.788;6.136;2024-02-14T02:54:06;5.73;;;1.73;;
4885;SDS011;2457;51.788;6.136;2024-02-14T02:56:34;3.80;;;1.90;;
4885;SDS011;2457;51.788;6.136;2024-02-14T02:59:02;4.47;;;2.13;;
4885;SDS011;2457;51.788;6.136;2024-02-14T03:01:35;4.23;;;1.83;;
4885;SDS011;2457;51.788;6.136;2024-02-14T03:03:59;3.83;;;1.80;;
4885;SDS011;2457;51.788;6.136;2024-02-14T03:06:27;4.63;;;1.50;;
4885;SDS011;2457;51.788;6.136;2024-02-14T03:08:54;4.10;;;1.90;;
4885;SDS011;2457;51.788;6.136;2024-02-14T03:11:23;4.77;;;1.90;;
4885;SDS011;2457;51.788;6.136;2024-02-14T03:13:52;4.07;;;1.70;;
4885;SDS011;2457;51.788;6.136;2024-02-14T03:16:19;3.73;;;1.70;;
4885;SDS011;2457;51.788;6.136;2024-02-14T03:18:47;4.83;;;1.63;;
4885;SDS011;2457;51.788;6.136;2024-02-14T03:21:14;4.47;;;1.80;;
4885;SDS011;2457;51.788;6.136;2024-02-14T03:23:42;4.10;;;1.67;;
4885;SDS011;2457;51.788;6.136;2024-02-14T03:26:10;4.23;;;2.07;;
4885;SDS011;2457;51.788;6.136;2024-02-14T03:28:38;4.60;;;1.80;;
4885;SDS011;2457;51.788;6.136;2024-02-14T03:31:05;6.30;;;1.80;;
4885;SDS011;2457;51.788;6.136;2024-02-14T03:33:33;4.00;;;1.60;;
4885;SDS011;2457;51.788;6.136;2024-02-14T03:36:00;4.33;;;2.10;;
4885;SDS011;2457;51.788;6.136;2024-02-14T03:38:28;4.80;;;2.03;;
4885;SDS011;2457;51.788;6.136;2024-02-14T03:40:57;5.70;;;1.70;;
4885;SDS011;2457;51.788;6.136;2024-02-14T03:43:25;4.70;;;1.90;;
4885;SDS011;2457;51.788;6.136;2024-02-14T03:45:52;4.00;;;1.70;;
4885;SDS011;2457;51.788;6.136;2024-02-14T03:48:21;6.10;;;1.87;;
4885;SDS011;2457;51.788;6.136;2024-02-14T03:50:48;4.97;;;2.10;;
4885;SDS011;2457;51.788;6.136;2024-02-14T03:53:16;5.90;;;2.17;;
4885;SDS011;2457;51.788;6.136;2024-02-14T03:55:43;3.80;;;1.80;;
4885;SDS011;2457;51.788;6.136;2024-02-14T03:58:10;7.43;;;1.53;;
4885;SDS011;2457;51.788;6.136;2024-02-14T04:00:39;5.60;;;2.23;;
4885;SDS011;2457;51.788;6.136;2024-02-14T04:03:07;6.20;;;1.83;;
4885;SDS011;2457;51.788;6.136;2024-02-14T04:05:34;4.60;;;2.13;;
4885;SDS011;2457;51.788;6.136;2024-02-14T04:08:02;5.50;;;1.90;;
4885;SDS011;2457;51.788;6.136;2024-02-14T04:10:29;6.47;;;2.10;;
4885;SDS011;2457;51.788;6.136;2024-02-14T04:12:57;4.10;;;2.03;;
4885;SDS011;2457;51.788;6.136;2024-02-14T04:15:24;6.13;;;1.97;;
4885;SDS011;2457;51.788;6.136;2024-02-14T04:17:51;4.77;;;1.70;;
4885;SDS011;2457;51.788;6.136;2024-02-14T04:20:19;5.50;;;2.00;;
4885;SDS011;2457;51.788;6.136;2024-02-14T04:22:47;6.23;;;2.10;;
4885;SDS011;2457;51.788;6.136;2024-02-14T04:25:14;6.20;;;2.20;;
4885;SDS011;2457;51.788;6.136;2024-02-14T04:27:41;4.07;;;2.00;;
4885;SDS011;2457;51.788;6.136;2024-02-14T04:30:09;4.00;;;1.57;;
4885;SDS011;2457;51.788;6.136;2024-02-14T04:32:37;5.70;;;1.83;;
4885;SDS011;2457;51.788;6.136;2024-02-14T04:35:04;6.50;;;2.93;;
4885;SDS011;2457;51.788;6.136;2024-02-14T04:37:32;6.40;;;2.00;;
4885;SDS011;2457;51.788;6.136;2024-02-14T04:39:59;5.50;;;2.07;;
4885;SDS011;2457;51.788;6.136;2024-02-14T04:42:26;4.30;;;2.07;;
4885;SDS011;2457;51.788;6.136;2024-02-14T04:44:54;10.93;;;1.60;;
4885;SDS011;2457;51.788;6.136;2024-02-14T04:47:21;6.43;;;1.83;;
4885;SDS011;2457;51.788;6.136;2024-02-14T04:49:49;5.47;;;2.33;;
4885;SDS011;2457;51.788;6.136;2024-02-14T04:52:17;6.77;;;2.20;;
4885;SDS011;2457;51.788;6.136;2024-02-14T04:54:45;4.37;;;2.00;;
4885;SDS011;2457;51.788;6.136;2024-02-14T04:57:12;4.20;;;2.10;;
4885;SDS011;2457;51.788;6.136;2024-02-14T04:59:40;5.30;;;2.00;;
4885;SDS011;2457;51.788;6.136;2024-02-14T05:02:10;8.43;;;2.57;;
4885;SDS011;2457;51.788;6.136;2024-02-14T05:04:38;4.60;;;1.83;;
4885;SDS011;2457;51.788;6.136;2024-02-14T05:07:05;5.17;;;2.43;;
4885;SDS011;2457;51.788;6.136;2024-02-14T05:09:33;4.70;;;2.40;;
4885;SDS011;2457;51.788;6.136;2024-02-14T05:12:01;6.87;;;2.00;;
4885;SDS011;2457;51.788;6.136;2024-02-14T05:14:30;5.40;;;1.97;;
4885;SDS011;2457;51.788;6.136;2024-02-14T05:16:57;5.30;;;1.97;;
4885;SDS011;2457;51.788;6.136;2024-02-14T05:19:26;5.00;;;2.10;;
4885;SDS011;2457;51.788;6.136;2024-02-14T05:21:55;4.20;;;2.10;;
4885;SDS011;2457;51.788;6.136;2024-02-14T05:24:22;6.67;;;2.07;;
4885;SDS011;2457;51.788;6.136;2024-02-14T05:26:51;4.50;;;1.90;;
4885;SDS011;2457;51.788;6.136;2024-02-14T05:29:19;4.27;;;2.03;;
4885;SDS011;2457;51.788;6.136;2024-02-14T05:31:46;6.53;;;1.93;;
4885;SDS011;2457;51.788;6.136;2024-02-14T05:34:18;5.87;;;2.20;;
4885;SDS011;2457;51.788;6.136;2024-02-14T05:36:46;6.77;;;2.47;;
4885;SDS011;2457;51.788;6.136;2024-02-14T05:39:14;5.83;;;2.10;;
4885;SDS011;2457;51.788;6.136;2024-02-14T05:41:42;4.20;;;1.80;;
4885;SDS011;2457;51.788;6.136;2024-02-14T05:44:09;3.87;;;1.70;;
4885;SDS011;2457;51.788;6.136;2024-02-14T05:46:36;5.80;;;2.20;;
4885;SDS011;2457;51.788;6.136;2024-02-14T05:49:04;4.77;;;2.30;;
4885;SDS011;2457;51.788;6.136;2024-02-14T05:51:31;5.57;;;1.93;;
4885;SDS011;2457;51.788;6.136;2024-02-14T05:53:58;5.40;;;2.27;;
4885;SDS011;2457;51.788;6.136;2024-02-14T05:56:26;4.93;;;2.13;;
4885;SDS011;2457;51.788;6.136;2024-02-14T05:58:53;3.97;;;1.90;;
4885;SDS011;2457;51.788;6.136;2024-02-14T06:01:21;5.43;;;2.43;;
4885;SDS011;2457;51.788;6.136;2024-02-14T06:03:48;3.70;;;1.77;;
4885;SDS011;2457;51.788;6.136;2024-02-14T06:06:15;5.33;;;2.17;;
4885;SDS011;2457;51.788;6.136;2024-02-14T06:08:43;5.50;;;2.00;;
4885;SDS011;2457;51.788;6.136;2024-02-14T06:11:10;4.80;;;2.00;;
4885;SDS011;2457;51.788;6.136;2024-02-14T06:13:40;6.97;;;2.10;;
4885;SDS011;2457;51.788;6.136;2024-02-14T06:16:07;5.63;;;2.43;;
4885;SDS011;2457;51.788;6.136;2024-02-14T06:18:34;4.73;;;2.07;;
4885;SDS011;2457;51.788;6.136;2024-02-14T06:21:02;5.87;;;2.10;;
4885;SDS011;2457;51.788;6.136;2024-02-14T06:23:29;4.20;;;1.90;;
4885;SDS011;2457;51.788;6.136;2024-02-14T06:26:02;4.70;;;2.07;;
4885;SDS011;2457;51.788;6.136;2024-02-14T06:28:26;3.70;;;1.90;;
4885;SDS011;2457;51.788;6.136;2024-02-14T06:30:54;6.50;;;1.87;;
4885;SDS011;2457;51.788;6.136;2024-02-14T06:33:21;4.10;;;1.80;;
4885;SDS011;2457;51.788;6.136;2024-02-14T06:35:49;3.80;;;1.80;;
4885;SDS011;2457;51.788;6.136;2024-02-14T06:38:19;3.57;;;1.50;;
4885;SDS011;2457;51.788;6.136;2024-02-14T06:40:46;4.00;;;1.70;;
4885;SDS011;2457;51.788;6.136;2024-02-14T06:43:13;4.23;;;2.00;;
4885;SDS011;2457;51.788;6.136;2024-02-14T06:45:41;4.60;;;2.20;;
4885;SDS011;2457;51.788;6.136;2024-02-14T06:48:08;7.53;;;1.67;;
4885;SDS011;2457;51.788;6.136;2024-02-14T06:50:35;5.17;;;2.10;;
4885;SDS011;2457;51.788;6.136;2024-02-14T06:53:03;4.70;;;1.70;;
4885;SDS011;2457;51.788;6.136;2024-02-14T06:55:31;4.50;;;1.83;;
4885;SDS011;2457;51.788;6.136;2024-02-14T06:57:59;4.20;;;2.20;;
4885;SDS011;2457;51.788;6.136;2024-02-14T07:00:26;4.80;;;2.00;;
4885;SDS011;2457;51.788;6.136;2024-02-14T07:02:55;4.20;;;1.90;;
4885;SDS011;2457;51.788;6.136;2024-02-14T07:05:22;4.00;;;2.20;;
4885;SDS011;2457;51.788;6.136;2024-02-14T07:07:50;5.53;;;2.53;;
4885;SDS011;2457;51.788;6.136;2024-02-14T07:10:18;3.80;;;1.90;;
4885;SDS011;2457;51.788;6.136;2024-02-14T07:12:45;5.60;;;2.27;;
4885;SDS011;2457;51.788;6.136;2024-02-14T07:15:12;4.53;;;2.00;;
4885;SDS011;2457;51.788;6.136;2024-02-14T07:17:39;7.50;;;2.20;;
4885;SDS011;2457;51.788;6.136;2024-02-14T07:20:07;4.80;;;2.30;;
4885;SDS011;2457;51.788;6.136;2024-02-14T07:22:35;4.43;;;1.90;;
4885;SDS011;2457;51.788;6.136;2024-02-14T07:25:03;4.77;;;2.07;;
4885;SDS011;2457;51.788;6.136;2024-02-14T07:27:31;5.23;;;2.47;;
4885;SDS011;2457;51.788;6.136;2024-02-14T07:29:58;4.70;;;2.30;;
4885;SDS011;2457;51.788;6.136;2024-02-14T07:32:26;7.37;;;2.37;;
4885;SDS011;2457;51.788;6.136;2024-02-14T07:34:53;9.00;;;2.47;;
4885;SDS011;2457;51.788;6.136;2024-02-14T07:37:21;4.77;;;2.50;;
4885;SDS011;2457;51.788;6.136;2024-02-14T07:39:48;4.90;;;2.60;;
4885;SDS011;2457;51.788;6.136;2024-02-14T07:42:16;4.90;;;2.43;;
4885;SDS011;2457;51.788;6.136;2024-02-14T07:44:43;10.50;;;2.97;;
4885;SDS011;2457;51.788;6.136;2024-02-14T07:47:11;6.37;;;2.60;;
4885;SDS011;2457;51.788;6.136;2024-02-14T07:49:39;5.67;;;3.20;;
4885;SDS011;2457;51.788;6.136;2024-02-14T07:52:07;5.07;;;2.80;;
4885;SDS011;2457;51.788;6.136;2024-02-14T07:54:34;6.47;;;2.60;;
4885;SDS011;2457;51.788;6.136;2024-02-14T07:57:02;5.80;;;3.00;;
4885;SDS011;2457;51.788;6.136;2024-02-14T07:59:30;6.20;;;2.47;;
4885;SDS011;2457;51.788;6.136;2024-02-14T08:01:57;9.30;;;2.50;;
4885;SDS011;2457;51.788;6.136;2024-02-14T08:04:25;4.90;;;2.63;;
4885;SDS011;2457;51.788;6.136;2024-02-14T08:06:52;6.63;;;2.83;;
4885;SDS011;2457;51.788;6.136;2024-02-14T08:09:20;7.53;;;2.67;;
4885;SDS011;2457;51.788;6.136;2024-02-14T08:11:47;5.63;;;3.03;;
4885;SDS011;2457;51.788;6.136;2024-02-14T08:14:15;4.77;;;2.60;;
4885;SDS011;2457;51.788;6.136;2024-02-14T08:16:42;6.40;;;2.80;;
4885;SDS011;2457;51.788;6.136;2024-02-14T08:19:09;5.47;;;2.60;;
4885;SDS011;2457;51.788;6.136;2024-02-14T08:21:37;5.33;;;3.13;;
4885;SDS011;2457;51.788;6.136;2024-02-14T08:24:05;5.40;;;2.60;;
4885;SDS011;2457;51.788;6.136;2024-02-14T08:26:32;5.90;;;2.80;;
4885;SDS011;2457;51.788;6.136;2024-02-14T08:28:59;5.60;;;2.70;;
4885;SDS011;2457;51.788;6.136;2024-02-14T08:31:27;5.40;;;2.60;;
4885;SDS011;2457;51.788;6.136;2024-02-14T08:33:54;7.07;;;2.97;;
4885;SDS011;2457;51.788;6.136;2024-02-14T08:36:22;5.50;;;2.27;;
4885;SDS011;2457;51.788;6.136;2024-02-14T08:38:49;6.90;;;2.90;;
4885;SDS011;2457;51.788;6.136;2024-02-14T08:41:16;5.83;;;2.70;;
4885;SDS011;2457;51.788;6.136;2024-02-14T08:43:44;4.23;;;2.10;;
4885;SDS011;2457;51.788;6.136;2024-02-14T08:46:12;6.00;;;2.70;;
4885;SDS011;2457;51.788;6.136;2024-02-14T08:48:39;5.77;;;3.07;;
4885;SDS011;2457;51.788;6.136;2024-02-14T08:51:08;5.57;;;2.90;;
4885;SDS011;2457;51.788;6.136;2024-02-14T08:53:36;5.33;;;2.73;;
4885;SDS011;2457;51.788;6.136;2024-02-14T08:56:03;7.80;;;2.93;;
4885;SDS011;2457;51.788;6.136;2024-02-14T08:58:31;9.00;;;2.50;;
4885;SDS011;2457;51.788;6.136;2024-02-14T09:00:58;5.90;;;2.67;;
4885;SDS011;2457;51.788;6.136;2024-02-14T09:03:25;7.27;;;2.80;;
4885;SDS011;2457;51.788;6.136;2024-02-14T09:05:53;5.57;;;2.97;;
4885;SDS011;2457;51.788;6.136;2024-02-14T09:08:21;7.20;;;3.13;;
4885;SDS011;2457;51.788;6.136;2024-02-14T09:10:48;6.00;;;2.90;;
4885;SDS011;2457;51.788;6.136;2024-02-14T09:13:16;5.67;;;2.60;;
4885;SDS011;2457;51.788;6.136;2024-02-14T09:15:43;8.07;;;2.80;;
4885;SDS011;2457;51.788;6.136;2024-02-14T09:18:11;5.83;;;2.43;;
4885;SDS011;2457;51.788;6.136;2024-02-14T09:20:38;5.50;;;2.40;;
4885;SDS011;2457;51.788;6.136;2024-02-14T09:23:05;6.50;;;3.07;;
4885;SDS011;2457;51.788;6.136;2024-02-14T09:25:33;7.00;;;2.90;;
4885;SDS011;2457;51.788;6.136;2024-02-14T09:28:00;5.73;;;3.10;;
4885;SDS011;2457;51.788;6.136;2024-02-14T09:30:28;7.27;;;3.20;;
4885;SDS011;2457;51.788;6.136;2024-02-14T09:32:55;6.90;;;2.57;;
4885;SDS011;2457;51.788;6.136;2024-02-14T09:35:23;4.97;;;2.47;;
4885;SDS011;2457;51.788;6.136;2024-02-14T09:37:51;7.70;;;3.33;;
4885;SDS011;2457;51.788;6.136;2024-02-14T09:40:18;7.40;;;2.83;;
4885;SDS011;2457;51.788;6.136;2024-02-14T09:42:49;6.00;;;2.80;;
4885;SDS011;2457;51.788;6.136;2024-02-14T09:45:14;5.27;;;2.93;;
4885;SDS011;2457;51.788;6.136;2024-02-14T09:47:41;8.63;;;3.23;;
4885;SDS011;2457;51.788;6.136;2024-02-14T09:50:09;6.10;;;2.80;;
4885;SDS011;2457;51.788;6.136;2024-02-14T09:52:36;11.10;;;3.00;;
4885;SDS011;2457;51.788;6.136;2024-02-14T09:55:05;5.30;;;2.70;;
4885;SDS011;2457;51.788;6.136;2024-02-14T09:57:33;5.70;;;2.97;;
4885;SDS011;2457;51.788;6.136;2024-02-14T10:00:01;7.40;;;3.80;;
4885;SDS011;2457;51.788;6.136;2024-02-14T10:02:32;6.17;;;3.10;;
4885;SDS011;2457;51.788;6.136;2024-02-14T10:04:59;5.97;;;3.00;;
4885;SDS011;2457;51.788;6.136;2024-02-14T10:07:26;6.50;;;3.33;;
4885;SDS011;2457;51.788;6.136;2024-02-14T10:09:54;7.90;;;3.50;;
4885;SDS011;2457;51.788;6.136;2024-02-14T10:12:21;7.60;;;3.43;;
4885;SDS011;2457;51.788;6.136;2024-02-14T10:14:49;6.90;;;3.00;;
4885;SDS011;2457;51.788;6.136;2024-02-14T10:17:19;7.00;;;2.80;;
4885;SDS011;2457;51.788;6.136;2024-02-14T10:20:00;13.57;;;3.30;;
4885;SDS011;2457;51.788;6.136;2024-02-14T10:22:24;5.60;;;2.77;;
4885;SDS011;2457;51.788;6.136;2024-02-14T10:24:52;5.60;;;2.93;;
4885;SDS011;2457;51.788;6.136;2024-02-14T10:27:20;5.90;;;3.00;;
4885;SDS011;2457;51.788;6.136;2024-02-14T10:29:48;8.43;;;3.50;;
4885;SDS011;2457;51.788;6.136;2024-02-14T10:32:15;6.50;;;3.10;;
4885;SDS011;2457;51.788;6.136;2024-02-14T10:34:43;6.47;;;3.27;;
4885;SDS011;2457;51.788;6.136;2024-02-14T10:37:13;5.07;;;2.53;;
4885;SDS011;2457;51.788;6.136;2024-02-14T10:39:42;6.53;;;2.77;;
4885;SDS011;2457;51.788;6.136;2024-02-14T10:42:10;6.60;;;3.40;;
4885;SDS011;2457;51.788;6.136;2024-02-14T10:44:37;7.93;;;3.07;;
4885;SDS011;2457;51.788;6.136;2024-02-14T10:47:05;8.87;;;2.90;;
4885;SDS011;2457;51.788;6.136;2024-02-14T10:49:34;8.33;;;3.30;;
4885;SDS011;2457;51.788;6.136;2024-02-14T10:52:03;9.20;;;3.53;;
4885;SDS011;2457;51.788;6.136;2024-02-14T10:54:32;12.50;;;3.40;;
4885;SDS011;2457;51.788;6.136;2024-02-14T10:57:03;6.87;;;2.90;;
4885;SDS011;2457;51.788;6.136;2024-02-14T10:59:29;8.10;;;3.30;;
4885;SDS011;2457;51.788;6.136;2024-02-14T11:01:57;9.37;;;2.90;;
4885;SDS011;2457;51.788;6.136;2024-02-14T11:04:25;7.07;;;2.80;;
4885;SDS011;2457;51.788;6.136;2024-02-14T11:06:52;8.03;;;3.00;;
4885;SDS011;2457;51.788;6.136;2024-02-14T11:09:21;6.70;;;3.03;;
4885;SDS011;2457;51.788;6.136;2024-02-14T11:11:49;5.93;;;3.27;;
4885;SDS011;2457;51.788;6.136;2024-02-14T11:14:18;6.00;;;3.03;;
4885;SDS011;2457;51.788;6.136;2024-02-14T11:16:45;6.60;;;2.90;;
4885;SDS011;2457;51.788;6.136;2024-02-14T11:19:13;6.27;;;2.80;;
4885;SDS011;2457;51.788;6.136;2024-02-14T11:21:43;7.23;;;3.03;;
4885;SDS011;2457;51.788;6.136;2024-02-14T11:24:11;5.87;;;2.63;;
4885;SDS011;2457;51.788;6.136;2024-02-14T11:26:50;8.23;;;2.80;;
4885;SDS011;2457;51.788;6.136;2024-02-14T11:29:19;8.40;;;3.30;;
4885;SDS011;2457;51.788;6.136;2024-02-14T11:31:46;6.37;;;2.77;;
4885;SDS011;2457;51.788;6.136;2024-02-14T11:34:17;5.20;;;2.73;;
4885;SDS011;2457;51.788;6.136;2024-02-14T11:36:45;5.13;;;2.60;;
4885;SDS011;2457;51.788;6.136;2024-02-14T11:39:12;6.00;;;2.60;;
4885;SDS011;2457;51.788;6.136;2024-02-14T11:41:40;5.90;;;2.60;;
4885;SDS011;2457;51.788;6.136;2024-02-14T11:44:09;7.70;;;2.73;;
4885;SDS011;2457;51.788;6.136;2024-02-14T11:46:38;6.27;;;2.50;;
4885;SDS011;2457;51.788;6.136;2024-02-14T11:49:05;5.00;;;2.40;;
4885;SDS011;2457;51.788;6.136;2024-02-14T11:51:33;5.27;;;2.60;;
4885;SDS011;2457;51.788;6.136;2024-02-14T11:54:03;4.63;;;2.10;;
4885;SDS011;2457;51.788;6.136;2024-02-14T11:56:31;5.00;;;2.10;;
4885;SDS011;2457;51.788;6.136;2024-02-14T11:59:01;5.40;;;2.30;;
4885;SDS011;2457;51.788;6.136;2024-02-14T12:01:33;5.13;;;2.30;;
4885;SDS011;2457;51.788;6.136;2024-02-14T12:04:01;5.87;;;2.47;;
4885;SDS011;2457;51.788;6.136;2024-02-14T12:06:29;5.20;;;2.30;;
4885;SDS011;2457;51.788;6.136;2024-02-14T12:08:58;4.90;;;2.13;;
4885;SDS011;2457;51.788;6.136;2024-02-14T12:11:27;5.00;;;1.90;;
4885;SDS011;2457;51.788;6.136;2024-02-14T12:13:55;4.77;;;2.17;;
4885;SDS011;2457;51.788;6.136;2024-02-14T12:16:23;5.83;;;2.23;;
4885;SDS011;2457;51.788;6.136;2024-02-14T12:18:59;6.60;;;2.60;;
4885;SDS011;2457;51.788;6.136;2024-02-14T12:21:19;5.40;;;2.33;;
4885;SDS011;2457;51.788;6.136;2024-02-14T12:23:47;5.90;;;2.20;;
4885;SDS011;2457;51.788;6.136;2024-02-14T12:26:15;5.63;;;2.20;;
4885;SDS011;2457;51.788;6.136;2024-02-14T12:28:45;5.73;;;1.70;;
4885;SDS011;2457;51.788;6.136;2024-02-14T12:31:21;8.80;;;1.70;;
4885;SDS011;2457;51.788;6.136;2024-02-14T12:33:42;5.00;;;1.60;;
4885;SDS011;2457;51.788;6.136;2024-02-14T12:36:11;4.90;;;1.90;;
4885;SDS011;2457;51.788;6.136;2024-02-14T12:38:39;4.00;;;1.70;;
4885;SDS011;2457;51.788;6.136;2024-02-14T12:41:07;4.60;;;1.70;;
4885;SDS011;2457;51.788;6.136;2024-02-14T12:43:34;5.30;;;1.63;;
4885;SDS011;2457;51.788;6.136;2024-02-14T12:46:01;4.27;;;1.50;;
4885;SDS011;2457;51.788;6.136;2024-02-14T12:48:30;4.00;;;1.60;;
4885;SDS011;2457;51.788;6.136;2024-02-14T12:50:58;5.37;;;2.00;;
4885;SDS011;2457;51.788;6.136;2024-02-14T12:53:25;6.10;;;1.93;;
4885;SDS011;2457;51.788;6.136;2024-02-14T12:55:53;3.40;;;1.40;;
4885;SDS011;2457;51.788;6.136;2024-02-14T12:58:20;5.10;;;1.53;;
4885;SDS011;2457;51.788;6.136;2024-02-14T13:00:47;3.80;;;1.57;;
4885;SDS011;2457;51.788;6.136;2024-02-14T13:03:15;4.53;;;1.80;;
4885;SDS011;2457;51.788;6.136;2024-02-14T13:05:42;4.53;;;1.83;;
4885;SDS011;2457;51.788;6.136;2024-02-14T13:08:10;4.87;;;2.10;;
4885;SDS011;2457;51.788;6.136;2024-02-14T13:10:38;4.80;;;1.80;;
4885;SDS011;2457;51.788;6.136;2024-02-14T13:13:05;3.77;;;1.47;;
4885;SDS011;2457;51.788;6.136;2024-02-14T13:15:32;4.17;;;1.63;;
4885;SDS011;2457;51.788;6.136;2024-02-14T13:18:00;3.57;;;1.50;;
4885;SDS011;2457;51.788;6.136;2024-02-14T13:20:29;3.83;;;1.40;;
4885;SDS011;2457;51.788;6.136;2024-02-14T13:22:56;3.67;;;1.50;;
4885;SDS011;2457;51.788;6.136;2024-02-14T13:25:24;5.00;;;1.70;;
4885;SDS011;2457;51.788;6.136;2024-02-14T13:27:52;4.73;;;1.80;;
4885;SDS011;2457;51.788;6.136;2024-02-14T13:30:20;6.80;;;2.60;;
4885;SDS011;2457;51.788;6.136;2024-02-14T13:32:48;4.57;;;1.57;;
4885;SDS011;2457;51.788;6.136;2024-02-14T13:35:16;4.00;;;1.50;;
4885;SDS011;2457;51.788;6.136;2024-02-14T13:37:43;4.47;;;1.77;;
4885;SDS011;2457;51.788;6.136;2024-02-14T13:40:11;3.60;;;1.30;;
4885;SDS011;2457;51.788;6.136;2024-02-14T13:42:38;4.40;;;1.90;;
4885;SDS011;2457;51.788;6.136;2024-02-14T13:45:06;4.33;;;1.70;;
4885;SDS011;2457;51.788;6.136;2024-02-14T13:47:38;5.23;;;2.00;;
4885;SDS011;2457;51.788;6.136;2024-02-14T13:50:09;5.87;;;1.80;;
4885;SDS011;2457;51.788;6.136;2024-02-14T13:52:36;7.73;;;1.73;;
4885;SDS011;2457;51.788;6.136;2024-02-14T13:55:04;4.77;;;1.77;;
4885;SDS011;2457;51.788;6.136;2024-02-14T13:57:39;4.70;;;1.80;;
4885;SDS011;2457;51.788;6.136;2024-02-14T14:00:05;5.53;;;1.50;;
4885;SDS011;2457;51.788;6.136;2024-02-14T14:02:32;4.17;;;1.73;;
4885;SDS011;2457;51.788;6.136;2024-02-14T14:05:00;4.23;;;1.70;;
4885;SDS011;2457;51.788;6.136;2024-02-14T14:07:27;4.20;;;1.40;;
4885;SDS011;2457;51.788;6.136;2024-02-14T14:09:54;3.90;;;1.50;;
4885;SDS011;2457;51.788;6.136;2024-02-14T14:12:22;3.50;;;1.23;;
4885;SDS011;2457;51.788;6.136;2024-02-14T14:14:49;3.53;;;1.50;;
4885;SDS011;2457;51.788;6.136;2024-02-14T14:17:16;3.90;;;1.60;;
4885;SDS011;2457;51.788;6.136;2024-02-14T14:19:44;4.27;;;1.83;;
4885;SDS011;2457;51.788;6.136;2024-02-14T14:22:11;4.30;;;1.50;;
4885;SDS011;2457;51.788;6.136;2024-02-14T14:24:38;4.67;;;2.17;;
4885;SDS011;2457;51.788;6.136;2024-02-14T14:27:06;6.77;;;1.47;;
4885;SDS011;2457;51.788;6.136;2024-02-14T14:29:35;5.67;;;1.70;;
4885;SDS011;2457;51.788;6.136;2024-02-14T14:32:02;3.90;;;1.50;;
4885;SDS011;2457;51.788;6.136;2024-02-14T14:34:30;4.03;;;1.33;;
4885;SDS011;2457;51.788;6.136;2024-02-14T14:36:58;4.40;;;1.80;;
4885;SDS011;2457;51.788;6.136;2024-02-14T14:39:25;4.40;;;1.63;;
4885;SDS011;2457;51.788;6.136;2024-02-14T14:41:53;3.40;;;1.30;;
4885;SDS011;2457;51.788;6.136;2024-02-14T14:44:22;3.60;;;1.50;;
4885;SDS011;2457;51.788;6.136;2024-02-14T14:46:49;3.73;;;1.47;;
4885;SDS011;2457;51.788;6.136;2024-02-14T14:49:17;3.93;;;1.33;;
4885;SDS011;2457;51.788;6.136;2024-02-14T14:51:44;4.00;;;1.30;;
4885;SDS011;2457;51.788;6.136;2024-02-14T14:54:12;3.50;;;1.30;;
4885;SDS011;2457;51.788;6.136;2024-02-14T14:56:39;3.50;;;1.20;;
4885;SDS011;2457;51.788;6.136;2024-02-14T14:59:09;3.73;;;1.20;;
4885;SDS011;2457;51.788;6.136;2024-02-14T15:01:36;3.60;;;1.20;;
4885;SDS011;2457;51.788;6.136;2024-02-14T15:04:04;3.50;;;1.23;;
4885;SDS011;2457;51.788;6.136;2024-02-14T15:06:32;3.80;;;1.10;;
4885;SDS011;2457;51.788;6.136;2024-02-14T15:09:00;3.20;;;1.10;;
4885;SDS011;2457;51.788;6.136;2024-02-14T15:11:27;4.50;;;1.40;;
4885;SDS011;2457;51.788;6.136;2024-02-14T15:13:55;3.70;;;1.40;;
4885;SDS011;2457;51.788;6.136;2024-02-14T15:16:22;3.93;;;1.30;;
4885;SDS011;2457;51.788;6.136;2024-02-14T15:18:50;3.70;;;1.37;;